Reportages photos

Connexion

15km

15 KMTRAIL VALLEE DE LA COURSE du 05/04/15 (Réelle 15)
Rang Dossard Nom Prénom Temps Cat Rang Cat Ecart Ecart Cat Club Vitesse Km/h Temps au Km
1 157 MAES PAUL 01:01:01 SEM 1 00:00:00 00:00:00 A.S. MARCK 14,750 04:04
2 337 BOULOGNE JEREMY 01:03:15 V1M 1 00:02:14 00:00:00 AC AUDOMAROIS 14,229 04:13
3 124 PICHONNIER GUILLAUME 01:03:23 SEM 2 00:02:22 00:02:22 14,199 04:14
4 298 CALOIN MATHIEU 01:06:14 SEM 3 00:05:13 00:05:13 TOUQUET OPALE ATHLETISME 13,588 04:25
5 334 HIVART GEOFFREY 01:06:18 SEM 4 00:05:17 00:05:17 TOUQUET TRAIL NATURE 13,575 04:25
6 147 FORTIN LEO 01:06:53 SEM 5 00:05:52 00:05:52 CAP OPALE 13,456 04:28
7 404 MERLIN NICOLAS 01:06:55 V1M 2 00:05:54 00:03:40 TOUQUET TRAIL NATURE 13,450 04:28
8 183 BOURDON GILBERT 01:08:04 SEM 6 00:07:03 00:07:03 ATHLETISME CLUB OUTREAU 13,222 04:32
9 382 OSSTYN PATRICE 01:08:31 V1M 3 00:07:30 00:05:16 TOUQUET TRAIL NATURE 13,135 04:34
10 222 PRUVOT ROMAIN 01:08:35 SEM 7 00:07:34 00:07:34 TOUQUET OPALE ATHLETISME 13,123 04:34
11 274 WACOGNE MICHEL 01:08:36 SEM 8 00:07:35 00:07:35 TOUQUET OPALE ATHLETISME 13,120 04:34
12 121 DUCROCQ MARC-ANTOINE 01:08:50 SEM 9 00:07:49 00:07:49 NON LICENCIE 13,075 04:35
13 174 DUJARDIN VINCENT 01:09:04 SEM 10 00:08:03 00:08:03 CHTI MARATHONIENS DE WALLERS 13,031 04:36
14 385 FINDINIER BERTRAND 01:09:17 V1M 4 00:08:16 00:06:02 ESCAP'AVENTURE 12,990 04:37
15 199 FASQUEL DOMINIQUE 01:09:41 V1M 5 00:08:40 00:06:26 ATHLETISME CLUB OUTREAU 12,916 04:39
16 109 SERGENT ROMUALD 01:09:41 SEM 11 00:08:40 00:08:40 TOA 12,916 04:39
17 101 DUCATEL JEROME 01:10:07 SEM 12 00:09:06 00:09:06 NON LICENCIE 12,836 04:40
18 406 CONDETTE JEAN-MICHEL 01:10:41 V1M 6 00:09:40 00:07:26 MARQUISE ATHLETISME 12,733 04:43
19 250 WILLER FRANCOIS 01:11:20 V1M 7 00:10:19 00:08:05 TOUQUET OPALE ATHLETISME 12,617 04:45
20 356 GRESSIER FREDERIC 01:12:19 SEM 13 00:11:18 00:11:18 OMNISPORT CAMPAGNE LES HESDIN 12,445 04:49
21 198 DUFRESNE FABIEN 01:12:41 SEM 14 00:11:40 00:11:40 ATHLETISME CLUB OUTREAU 12,382 04:51
22 336 COURONNEL JEROME 01:12:50 V1M 8 00:11:49 00:09:35 TOUQUET TRAIL NATURE 12,357 04:51
23 574 RICHARD OLIVIER 01:13:21 V1M 9 00:12:20 00:10:06 TRIATHLON CLUB LIEVIN 12,270 04:53
24 251 VILLEZ MORGAN 01:13:30 SEM 15 00:12:29 00:12:29 12,245 04:54
25 180 BAHEU ROMAIN 01:13:32 SEM 16 00:12:31 00:12:31 ATHLETISME CLUB OUTREAU 12,239 04:54
26 409 FOURRIER FREDERIC 01:13:39 SEM 17 00:12:38 00:12:38 ATHLETIQUE CLUB CAPELLOIS 12,220 04:55
27 335 COURONNEL ROMAIN 01:15:27 JUM 1 00:14:26 00:00:00 TOUQUET TRAIL NATURE 11,928 05:02
28 291 TALPAERT FELIX 01:16:09 SEM 18 00:15:08 00:15:08 11,819 05:05
29 182 BOULY JEROME 01:16:10 V1M 10 00:15:09 00:12:55 ATHLETISME CLUB OUTREAU 11,816 05:05
30 398 THOMAS SEBASTIEN 01:16:27 V1M 11 00:15:26 00:13:12 TRIATHLON CLUB DE MONTREUIL 11,772 05:06
31 191 DELATTRE JOHANN 01:16:44 SEM 19 00:15:43 00:15:43 ATHLETISME CLUB OUTREAU 11,729 05:07
32 317 LEBLOND ARNAUD 01:16:47 V1M 12 00:15:46 00:13:32 LE DRAPEAU 11,721 05:07
33 292 DUCROCQ YVES 01:16:55 V2M 1 00:15:54 00:00:00 NON LICENCIE 11,701 05:08
34 118 BELLENGUEZ JULIEN 01:16:55 SEM 20 00:15:54 00:15:54 TRIATHLON CLUB BOULONNAIS 11,701 05:08
35 215 QUANDALLE VINCENT 01:16:55 JUM 2 00:15:54 00:01:28 ATHLETISME CLUB OUTREAU 11,701 05:08
36 196 DESACHY MARC 01:17:11 V1M 13 00:16:10 00:13:56 ATHLETISME CLUB OUTREAU 11,661 05:09
37 299 DEGARDIN LAURENT 01:17:24 V1M 14 00:16:23 00:14:09 TOUQUET OPALE ATHLETISME 11,628 05:10
38 360 DELMOTTE YOHANN 01:17:46 V1M 15 00:16:45 00:14:31 OMNISPORT CAMPAGNE LES HESDIN 11,573 05:11
39 369 GOZE PHILIPPE 01:17:49 V1M 16 00:16:48 00:14:34 AIRE SUR LA LYS 11,566 05:11
40 111 RAIMOND JEROME 01:17:53 SEM 21 00:16:52 00:16:52 NON LICENCIE 11,556 05:12
41 185 BRILLARD SEBASTIEN 01:18:00 SEM 22 00:16:59 00:16:59 ATHLETISME CLUB OUTREAU 11,538 05:12
42 311 SOYEZ JULIE 01:18:02 SEF 1 00:17:01 00:00:00 CHAMROUSSE ENDURANCE 11,534 05:12
43 169 RIFFLART BENOIT 01:18:03 SEM 23 00:17:02 00:17:02 11,531 05:12
44 267 ENRY ALEXANDRE 01:18:16 SEM 24 00:17:15 00:17:15 11,499 05:13
45 384 GUILBERT NICOLAS 01:18:35 SEM 25 00:17:34 00:17:34 NON LICENCIE 11,453 05:14
46 331 PAVY FREDERIC 01:18:45 V1M 17 00:17:44 00:15:30 NON LICENCIE 11,429 05:15
47 145 PECQUEUX FRANCOIS 01:19:04 JUM 3 00:18:03 00:03:37 TRIATHLON CLUB BOULONNAIS 11,383 05:16
48 399 BERTIN MAXIME 01:19:12 SEM 26 00:18:11 00:18:11 NON LICENCIE 11,364 05:17
49 300 SCHUPPE CLOTAIRE 01:19:16 V2M 2 00:18:15 00:02:21 A.S. MARCK 11,354 05:17
50 370 LEFEBVRE CEDRIC 01:19:57 V1M 18 00:18:56 00:16:42 ACM MARCQ EN BAROEUL 11,257 05:20
51 366 DUCLOY MARTIN 01:20:34 JUM 4 00:19:33 00:05:07 NON LICENCIE 11,171 05:22
52 214 MORICE ARNAUD 01:20:35 V1M 19 00:19:34 00:17:20 ATHLETISME CLUB OUTREAU 11,169 05:22
53 217 ROGERE STEPHANE 01:20:40 V2M 3 00:19:39 00:03:45 ATHLETISME CLUB OUTREAU 11,157 05:23
54 569 MATHIEU ARMAND 01:20:45 SEM 27 00:19:44 00:19:44 NON LICENCIE 11,146 05:23
55 167 FALEMPIN SYLVAIN 01:20:52 V1M 20 00:19:51 00:17:37 TEAM TRAIL 62 11,129 05:23
56 388 DEWEER NICOLAS 01:20:53 SEM 28 00:19:52 00:19:52 NON LICENCIE 11,127 05:24
57 415 HERMANT JONATHAN 01:20:58 SEM 29 00:19:57 00:19:57 NON LICENCIE 11,116 05:24
58 414 DUCROCQ ARNAUD 01:21:26 V1M 21 00:20:25 00:18:11 ELAN FRUGEOIS 11,052 05:26
59 218 ROGERE MARC 01:21:34 SEM 30 00:20:33 00:20:33 ATHLETISME CLUB OUTREAU 11,034 05:26
60 361 WIDEHEM FREDERIC 01:21:40 V1M 22 00:20:39 00:18:25 ATHLETISME CLUB OUTREAU 11,020 05:27
61 213 MERLIN LOIC 01:21:58 SEM 31 00:20:57 00:20:57 ATHLETISME CLUB OUTREAU 10,980 05:28
62 150 PHILIS JACQUES 01:22:01 V3M 1 00:21:00 00:00:00 TOUQUET OPALE ATHLETISME 10,973 05:28
63 416 QUIQUET CHRISTOPHE 01:22:04 V2M 4 00:21:03 00:05:09 TCB 10,967 05:28
64 283 DUBOIS STEPHANE 01:22:20 SEM 32 00:21:19 00:21:19 ARC INTERNATIONAL 10,931 05:29
65 278 FASQUEL VINCENT 01:22:40 SEM 33 00:21:39 00:21:39 TEAMTIUNFON 10,887 05:31
66 405 COEUGNET EMMANUEL 01:22:51 V1M 23 00:21:50 00:19:36 SPORT EVASION DES 2 CAPS 10,863 05:31
67 284 BALY FRANCOIS 01:22:52 SEM 34 00:21:51 00:21:51 NON LICENCIE 10,861 05:31
68 410 LEFRANC OLIVIER 01:23:06 V1M 24 00:22:05 00:19:51 SAINT MARTIN ATHLETISME 10,830 05:32
69 114 COLIN FREDERIC 01:23:20 V1M 25 00:22:19 00:20:05 NON LICENCIE 10,800 05:33
70 197 DUFOUR ANTOINE 01:23:22 ESM 1 00:22:21 00:00:00 ATHLETISME CLUB OUTREAU 10,796 05:33
71 285 BUTEL DAVID 01:23:35 V1M 26 00:22:34 00:20:20 R.C ARRAS 10,768 05:34
72 377 DELAY BASTIEN 01:23:37 JUM 5 00:22:36 00:08:10 ASC CAMIERS 10,763 05:34
73 572 DAVIAUD FABRICE 01:23:44 V1M 27 00:22:43 00:20:29 ARTOIS ATHLETISME 10,748 05:35
74 129 BAHEUX JEAN MICHEL 01:23:44 V3M 2 00:22:43 00:01:43 NON LICENCIE 10,748 05:35
75 394 HONORE REMY 01:23:46 SEM 35 00:22:45 00:22:45 NON LICENCIE 10,744 05:35
76 397 HENNION GUILLAUME 01:23:53 SEM 36 00:22:52 00:22:52 COMPIEGNE TRIATHLON 10,729 05:36
77 296 DHESSE LUDOVIC 01:24:16 SEM 37 00:23:15 00:23:15 ARTOIS ATHLETISME 10,680 05:37
78 287 CHIVET AURELIEN 01:24:23 JUM 6 00:23:22 00:08:56 10,666 05:38
79 136 GODART JEAN-CHRISTOPHE 01:24:25 V1M 28 00:23:24 00:21:10 TEAM TRAIL 62 10,661 05:38
80 332 DEVOS FLORIAN 01:25:08 CAM 1 00:24:07 00:00:00 E.S. ARQUES 10,572 05:41
81 131 BALY PATRICK 01:25:10 V2M 5 00:24:09 00:08:15 NON LICENCIE 10,568 05:41
82 381 KUSCHNICK FABRICE 01:25:12 V1M 29 00:24:11 00:21:57 10,563 05:41
83 102 VASSEUR RAPHAEL 01:25:19 SEM 38 00:24:18 00:24:18 NON LICENCIE 10,549 05:41
84 387 BALY ADRIEN 01:25:20 SEM 39 00:24:19 00:24:19 NON LICENCIE 10,547 05:41
85 206 LANGAGNE GAETAN 01:25:24 SEM 40 00:24:23 00:24:23 ATHLETISME CLUB OUTREAU 10,539 05:42
86 143 CHOQUET SEBASTIEN 01:25:29 SEM 41 00:24:28 00:24:28 10,528 05:42
87 418 PENEZ LUDOVIC 01:25:29 V1M 30 00:24:28 00:22:14 NON LICENCIE 10,528 05:42
88 207 LAVERDURE PASCAL 01:25:31 V2M 6 00:24:30 00:08:36 ATHLETISME CLUB OUTREAU 10,524 05:42
89 325 RIGAUX ANTHONY 01:25:32 SEM 42 00:24:31 00:24:31 JOG GAZELEC 10,522 05:42
90 324 CAMBIER DAVID 01:25:35 SEM 43 00:24:34 00:24:34 LE DRAPEAU 10,516 05:42
91 354 DACQUIN THOMAS 01:25:44 SEM 44 00:24:43 00:24:43 10,498 05:43
92 417 CAPPE ALEXANDRE 01:26:05 ESM 2 00:25:04 00:02:43 NON LICENCIE 10,455 05:44
93 186 CALON CHRISTIAN 01:26:05 V2M 7 00:25:04 00:09:10 ATHLETISME CLUB OUTREAU 10,455 05:44
94 392 MALE MICHAEL 01:26:07 V1M 31 00:25:06 00:22:52 SPORT EVASION DES 2 CAPS 10,451 05:44
95 280 CANNIE FRANCK 01:26:53 V1M 32 00:25:52 00:23:38 NON LICENCIE 10,359 05:48
96 290 TALPAERT ARTHUR 01:26:53 SEM 45 00:25:52 00:25:52 10,359 05:48
97 587 DELATTRE BRUNO 01:26:56 V3M 3 00:25:55 00:04:55 NON LICENCIE 10,353 05:48
98 252 DELVOYE LUC 01:26:57 V2M 8 00:25:56 00:10:02 COLEMBERT 10,351 05:48
99 159 KAMINSKI OLIVIA 01:27:05 SEF 2 00:26:04 00:09:03 TOUQUET OPALE ATHLETISME 10,335 05:48
100 411 DEFEBVIN BRUNO 01:27:05 V2M 9 00:26:04 00:10:10 ELAN FRUGEOIS 10,335 05:48
101 310 FRANCOIS LAURENT 01:27:08 SEM 46 00:26:07 00:26:07 FSPF LENS 10,329 05:49
102 151 BLARET LAURENT 01:27:50 V1M 33 00:26:49 00:24:35 NON LICENCIE 10,247 05:51
103 154 TAINON SAMUEL 01:28:05 SEM 47 00:27:04 00:27:04 10,218 05:52
104 262 BROUTIER ERIC 01:28:17 V1M 34 00:27:16 00:25:02 10,194 05:53
105 365 ISAERT LUDOVIC 01:28:25 SEM 48 00:27:24 00:27:24 IDI TEAM SPORT 10,179 05:54
106 322 GINOLIN FRANKIE 01:28:32 V1M 35 00:27:31 00:25:17 LE DRAPEAU 10,166 05:54
107 269 BAILLY FRANCOIS 01:28:42 SEM 49 00:27:41 00:27:41 NON LICENCIE 10,147 05:55
108 130 BALY SYLVAIN 01:29:22 SEM 50 00:28:21 00:28:21 NON LICENCIE 10,071 05:57
109 390 LEPRETRE CLEMENT 01:29:27 SEM 51 00:28:26 00:28:26 TOUQUET OPALE ATHLETISME 10,061 05:58
110 297 FONTAINE LUDOVIC 01:29:27 V1M 36 00:28:26 00:26:12 ARTOIS ATHLETISME 10,061 05:58
111 578 LELEU FRANCOIS 01:29:28 SEM 52 00:28:27 00:28:27 NON LICENCIE 10,060 05:58
112 383 MARTIN DAVID 01:29:35 V1M 37 00:28:34 00:26:20 POMPIERS DESVRES 10,047 05:58
113 160 COLLIER GUILLAUME 01:29:49 SEM 53 00:28:48 00:28:48 NON LICENCIE 10,020 05:59
114 376 FRICHOT ANTOINE 01:30:10 SEM 54 00:29:09 00:29:09 TOUQUET TRAIL NATURE 9,982 06:01
115 168 VANDERMOLEN THIBAUT 01:30:13 SEM 55 00:29:12 00:29:12 9,976 06:01
116 106 DELPLANQUE VINCENT 01:30:22 SEM 56 00:29:21 00:29:21 NON LICENCIE 9,959 06:01
117 170 ELLIS DAVID 01:30:34 V2M 10 00:29:33 00:13:39 NON LICENCIE 9,937 06:02
118 582 LEGENDRE DAVID 01:30:42 SEM 57 00:29:41 00:29:41 NON LICENCIE 9,923 06:03
119 386 MASSY ANDREW 01:30:42 SEM 58 00:29:41 00:29:41 NON LICENCIE 9,923 06:03
120 362 TISON JAMES 01:30:47 SEM 59 00:29:46 00:29:46 9,914 06:03
121 229 LEFRANC CHRISTIAN 01:30:48 V2M 11 00:29:47 00:13:53 NON LICENCIE 9,912 06:03
122 236 LIMASCON SANDRINE 01:31:17 SEF 3 00:30:16 00:13:15 NON LICENCIE 9,859 06:05
123 289 SKRZYPCZAK DAVID 01:31:20 SEM 60 00:30:19 00:30:19 9,854 06:05
124 308 DELCROIX ERIC 01:31:21 V1M 38 00:30:20 00:28:06 OPALE COYOTTE 9,852 06:05
125 338 MAHIEUX JEAN-LUC 01:31:23 V2M 12 00:30:22 00:14:28 NON LICENCIE 9,849 06:06
126 579 PRIEM OLIVIER 01:31:28 V1M 39 00:30:27 00:28:13 NON LICENCIE 9,840 06:06
127 153 BOUFFE MAXIME 01:31:37 SEM 61 00:30:36 00:30:36 9,824 06:06
128 201 FEUTRY PATRICK 01:31:44 V1M 40 00:30:43 00:28:29 ATHLETISME CLUB OUTREAU 9,811 06:07
129 188 CRETON FABRICE 01:31:44 V1M 41 00:30:43 00:28:29 ATHLETISME CLUB OUTREAU 9,811 06:07
130 132 MAGNIER DAVID 01:32:12 SEM 62 00:31:11 00:31:11 CALOTTERIE 9,761 06:09
131 108 IHABARCHEN SOFIANE 01:32:14 SEM 63 00:31:13 00:31:13 NON LICENCIE 9,758 06:09
132 162 BUE CHRISTOPHE 01:32:35 SEM 64 00:31:34 00:31:34 9,721 06:10
133 164 VAILLANT PATRICE 01:32:48 V2M 13 00:31:47 00:15:53 NON LICENCIE 9,698 06:11
134 138 LOEUILLIEUX JULIEN 01:32:54 SEM 65 00:31:53 00:31:53 TEAM TRAIL 62 9,688 06:12
135 313 TOMI CHRISTOPHE 01:33:02 V1M 42 00:32:01 00:29:47 OPALE COYOTTE 9,674 06:12
136 312 HURTRELLE GUYLAIN 01:33:03 V1M 43 00:32:02 00:29:48 OPALE COYOTTE 9,672 06:12
137 112 ROUSSEL MARIE 01:33:03 SEF 4 00:32:02 00:15:01 NON LICENCIE 9,672 06:12
138 586 GERARD SANDRA 01:33:06 V1F 1 00:32:05 00:00:00 NON LICENCIE 9,667 06:12
139 166 BOCHU MICHEL 01:33:08 V3M 4 00:32:07 00:11:07 NON LICENCIE 9,664 06:13
140 355 MARTIN JEAN FRANCOIS 01:33:28 SEM 66 00:32:27 00:32:27 9,629 06:14
141 363 DANTIN JEREMY 01:33:30 SEM 67 00:32:29 00:32:29 9,626 06:14
142 583 HANOCQ DANIEL 01:33:47 V1M 44 00:32:46 00:30:32 NON LICENCIE 9,597 06:15
143 224 HAVART CHARLES 01:33:50 V1M 45 00:32:49 00:30:35 JOGGING CLUB LICQUOIS 9,591 06:15
144 419 OGES NICOLAS 01:33:51 V1M 46 00:32:50 00:30:36 NON LICENCIE 9,590 06:15
145 241 BABILLOTTE PHILIPPE 01:34:00 V1M 47 00:32:59 00:30:45 9,574 06:16
146 584 FRANCOIS ROMAIN 01:34:06 SEM 68 00:33:05 00:33:05 BERCK A C O 9,564 06:16
147 407 SALON PATRICK 01:34:08 V2M 14 00:33:07 00:17:13 CALOTTERIE 9,561 06:17
148 389 MACQUET PATRICK 01:34:10 V2M 15 00:33:09 00:17:15 BACO 9,558 06:17
149 277 HORVILLE JEROME 01:34:46 V1M 48 00:33:45 00:31:31 9,497 06:19
150 258 MAES ETIENNE 01:34:47 V2M 16 00:33:46 00:17:52 COLEMBERT 9,495 06:19
151 257 LEBAS DOMINIQUE 01:34:49 V2M 17 00:33:48 00:17:54 COLEMBERT 9,492 06:19
152 253 DUCROQUET MICHEL 01:34:51 V3M 5 00:33:50 00:12:50 COLEMBERT 9,489 06:19
153 223 REGNIER LAURENT 01:35:00 SEM 69 00:33:59 00:33:59 BOURTHES 9,474 06:20
154 403 ROBBE LAETITIA 01:35:10 SEF 5 00:34:09 00:17:08 NON LICENCIE 9,457 06:21
155 305 PETIT HUBERT 01:35:11 V1M 49 00:34:10 00:31:56 SPORT EVASION DES 2 CAPS 9,455 06:21
156 395 MILLE FRANCIS 01:35:16 V2M 18 00:34:15 00:18:21 NON LICENCIE 9,447 06:21
157 163 VIEQUE KARINE 01:35:41 V1F 2 00:34:40 00:02:35 9,406 06:23
158 316 PETA JEANNE ESTELLE 01:35:42 V1F 3 00:34:41 00:02:36 LE DRAPEAU 9,404 06:23
159 393 PIDOUX JEAN-CLAUDE 01:35:48 V3M 6 00:34:47 00:13:47 JOGGING CLUB LICQUOIS 9,395 06:23
160 242 MACQUET OLIVIER 01:36:21 V1M 50 00:35:20 00:33:06 NON LICENCIE 9,341 06:25
161 373 BIAT CAROLE 01:36:23 V2F 1 00:35:22 00:00:00 TOUQUET TRAIL NATURE 9,338 06:26
162 576 NAJMI AICHA 01:36:34 V1F 4 00:35:33 00:03:28 LE DRAPEAU 9,320 06:26
163 120 LEJEUNE FRANCK 01:36:38 V1M 51 00:35:37 00:33:23 NON LICENCIE 9,314 06:27
164 288 DELATTRE BENOIT 01:36:41 SEM 70 00:35:40 00:35:40 NON LICENCIE 9,309 06:27
165 413 HENGUELLE BETTY 01:36:45 V1F 5 00:35:44 00:03:39 ELAN FRUGEOIS 9,302 06:27
166 333 BEAUVOIS CORALIE 01:36:50 SEF 6 00:35:49 00:18:48 TOUQUET TRAIL NATURE 9,294 06:27
167 152 BOUFFE JEAN MARC 01:36:58 V2M 19 00:35:57 00:20:03 9,282 06:28
168 573 FRANCOIS THOMAS 01:37:01 SEM 71 00:36:00 00:36:00 BERCK A C O 9,277 06:28
169 402 GOBERT MARIE 01:37:07 SEF 7 00:36:06 00:19:05 NON LICENCIE 9,267 06:28
170 245 LEJOSNE LUC 01:37:07 V2M 20 00:36:06 00:20:12 9,267 06:28
171 375 DUHAMEL SYLVIE 01:37:08 V1F 6 00:36:07 00:04:02 TOUQUET TRAIL NATURE 9,266 06:29
172 374 MANTEZ SABRINA 01:37:10 V1F 7 00:36:09 00:04:04 A.S. MARCK 9,262 06:29
173 400 ROGER SYLVAIN 01:37:13 V2M 21 00:36:12 00:20:18 NON LICENCIE 9,258 06:29
174 368 CARON AURELIE 01:37:16 SEF 8 00:36:15 00:19:14 BLARINGHEM TRAIL 9,253 06:29
175 353 DHERBECOURT CHRISTOPHE 01:37:16 V2M 22 00:36:15 00:20:21 TRIATHLON CLUB BOULONNAIS 9,253 06:29
176 208 LEBURGUE GUILLAUME 01:37:42 SEM 72 00:36:41 00:36:41 ATHLETISME CLUB OUTREAU 9,212 06:31
177 588 MASSET GAUTHIER 01:38:08 ESM 3 00:37:07 00:14:46 NON LICENCIE 9,171 06:33
178 255 FATRAS FREDERIC 01:38:26 V1M 52 00:37:25 00:35:11 COLEMBERT 9,143 06:34
179 203 GOLLIOT DIDIER 01:38:37 V1M 53 00:37:36 00:35:22 ATHLETISME CLUB OUTREAU 9,126 06:34
180 158 GARNIER MICHEL 01:38:41 V3M 7 00:37:40 00:16:40 BOA AC 9,120 06:35
181 302 DEWEZ JULIEN 01:38:47 SEM 73 00:37:46 00:37:46 9,111 06:35
182 139 MARTEL ERIC 01:38:58 V2M 23 00:37:57 00:22:03 TEAM TRAIL 62 9,094 06:36
183 175 GARENAUX STEPHANE 01:39:24 V1M 54 00:38:23 00:36:09 PATRIOTES DE GUINES 9,054 06:38
184 391 OUINEZ ALI 01:39:30 V2M 24 00:38:29 00:22:35 BACO 9,045 06:38
185 235 HODIQUE MYRIAM 01:39:39 SEF 9 00:38:38 00:21:37 TEAM TRAIL 62 9,032 06:39
186 330 VAN KALCK GAETAN 01:39:40 V1M 55 00:38:39 00:36:25 NON LICENCIE 9,030 06:39
187 221 CARON DIDIER 01:39:40 V1M 56 00:38:39 00:36:25 NON LICENCIE 9,030 06:39
188 156 HIEL MICHELE 01:39:41 V1F 8 00:38:40 00:06:35 9,029 06:39
189 240 DENNEULIN BERTRAND 01:39:47 V2M 25 00:38:46 00:22:52 9,020 06:39
190 314 COURTOIS CANDICE 01:39:49 SEF 10 00:38:48 00:21:47 NON LICENCIE 9,017 06:39
191 270 SAGNIER ARNAUD 01:39:50 V1M 57 00:38:49 00:36:35 CALOTTERIE 9,015 06:39
192 571 WASIAK RICHARD 01:40:00 V1M 58 00:38:59 00:36:45 NON LICENCIE 9,000 06:40
193 232 SENECHAL MARIE-CHRISTINE 01:40:13 V2F 2 00:39:12 00:03:50 PATRIOTES CROSS DE GUINES 8,981 06:41
194 233 LANSCOTTE JOEL 01:40:13 V1M 59 00:39:12 00:36:58 PATRIOTES DE GUINES 8,981 06:41
195 329 PRUVOST LAURENT 01:40:36 V1M 60 00:39:35 00:37:21 NON LICENCIE 8,946 06:42
196 282 DENIS GERALDINE 01:40:52 SEF 11 00:39:51 00:22:50 NON LICENCIE 8,923 06:43
197 281 VANTORNE ALEXIS 01:40:53 SEM 74 00:39:52 00:39:52 8,921 06:44
198 176 BUQUET STEPHANE 01:40:53 V1M 61 00:39:52 00:37:38 CALOTTERIE 8,921 06:44
199 589 BOURRE SIMON 01:40:54 SEM 75 00:39:53 00:39:53 NON LICENCIE 8,920 06:44
200 261 DAVID SYLVAIN 01:41:00 V2M 26 00:39:59 00:24:05 NON LICENCIE 8,911 06:44
201 220 SENECHAL NICOLAS 01:41:21 V1M 62 00:40:20 00:38:06 ATHLETISME CLUB OUTREAU 8,880 06:45
202 256 FLAHAUT SERGE 01:41:21 V2M 27 00:40:20 00:24:26 COLEMBERT 8,880 06:45
203 228 CARDON CHRISTOPHE 01:41:24 V1M 63 00:40:23 00:38:09 NON LICENCIE 8,876 06:46
204 581 SERGENT MAXIME 01:41:39 SEM 76 00:40:38 00:40:38 NON LICENCIE 8,854 06:47
205 408 BARLET JEROME 01:42:04 V1M 64 00:41:03 00:38:49 NON LICENCIE 8,818 06:48
206 307 RAY ISABELLE 01:42:08 V1F 9 00:41:07 00:09:02 CULTURE DANSE ETAPLES 8,812 06:49
207 306 LAURENT JOCELYN 01:42:08 V2M 28 00:41:07 00:25:13 CULTURE DANSE ETAPLES 8,812 06:49
208 259 PAVAGEAU ALAIN 01:42:16 V2M 29 00:41:15 00:25:21 COLEMBERT 8,801 06:49
209 266 MARIE STEPHANIE 01:42:20 V1F 10 00:41:19 00:09:14 8,795 06:49
210 117 HOLUIGUE VIRGINIE 01:43:31 SEF 12 00:42:30 00:25:29 ATHLETIQUE CLUB CAPELLOIS 8,694 06:54
211 116 HOLUIGUE FREDERIC 01:43:31 SEM 77 00:42:30 00:42:30 ATHLETIQUE CLUB CAPELLOIS 8,694 06:54
212 570 TROLLE JULIEN 01:43:37 SEM 78 00:42:36 00:42:36 NON LICENCIE 8,686 06:54
213 273 LEJEUNE CHARLOTTE 01:43:59 SEF 13 00:42:58 00:25:57 8,655 06:56
214 275 WILLIAMSON NATHALIE 01:43:59 V2F 3 00:42:58 00:07:36 WIMEREUX RUNNING CLUB 8,655 06:56
215 304 SPILMONT HELENE 01:44:00 SEF 14 00:42:59 00:25:58 WIMEREUX RUNNING CLUB 8,654 06:56
216 249 GUILBERT FREDERIC 01:44:05 V1M 65 00:43:04 00:40:50 ELAN FRUGEOIS 8,647 06:56
217 315 VERMOOTE CHRISTELE 01:44:53 V1F 11 00:43:52 00:11:47 COLEMBERT 8,581 07:00
218 105 MINET MAELIN 01:45:02 SEM 79 00:44:01 00:44:01 8,569 07:00
219 327 EDMONT FLORENT 01:45:16 SEM 80 00:44:15 00:44:15 8,550 07:01
220 326 EDMONT PHILIPPE 01:45:16 V2M 30 00:44:15 00:28:21 CALOTTERIE 8,550 07:01
221 401 DEMAGNY OLIVIER 01:45:17 SEM 81 00:44:16 00:44:16 NON LICENCIE 8,548 07:01
222 113 HENNEGRAEVE NICOLAS 01:45:29 V1M 66 00:44:28 00:42:14 NON LICENCIE 8,532 07:02
223 357 BIZET VINCENT 01:45:42 V1M 67 00:44:41 00:42:27 8,515 07:03
224 161 GROSJEAN CHRISTOPHE 01:45:44 SEM 82 00:44:43 00:44:43 NON LICENCIE 8,512 07:03
225 137 LEDUC MARIE LAURE 01:45:59 SEF 15 00:44:58 00:27:57 TEAM TRAIL 62 8,492 07:04
226 420 PEREGRO RACHEL 01:46:04 SEF 16 00:45:03 00:28:02 NON LICENCIE 8,485 07:04
227 194 DELIENCOURT LAURENT 01:46:07 V1M 68 00:45:06 00:42:52 ATHLETISME CLUB OUTREAU 8,481 07:04
228 590 LEVASSEUR JEREMY 01:46:18 SEM 83 00:45:17 00:45:17 NON LICENCIE 8,467 07:05
229 127 THOMAS JEAN-PIERRE 01:46:22 V4M 1 00:45:21 00:00:00 CALOTTERIE 8,461 07:05
230 264 LARDE GUY 01:46:27 V3M 8 00:45:26 00:24:26 BERCK A C O 8,455 07:06
231 396 HOLUIGUE VERONIQUE 01:46:28 V1F 12 00:45:27 00:13:22 NON LICENCIE 8,453 07:06
232 211 LIMASCON FLORENCE 01:47:13 V1F 13 00:46:12 00:14:07 ATHLETISME CLUB OUTREAU 8,394 07:09
233 328 HOUADI CEDRIC 01:47:24 SEM 84 00:46:23 00:46:23 NON LICENCIE 8,380 07:10
234 165 DEMOULIN FRANCK 01:47:27 V1M 69 00:46:26 00:44:12 NON LICENCIE 8,376 07:10
235 580023 BRIZZI BENOIT 01:47:46 SEM 85 00:46:45 00:46:45 LE DRAPEAU 8,351 07:11
236 225 CODRON NADIA 01:48:01 V1F 14 00:47:00 00:14:55 ELAN FRUGEOIS 8,332 07:12
237 320 HANON JEAN PIERRE 01:48:02 V2M 31 00:47:01 00:31:07 LE DRAPEAU 8,331 07:12
238 412 DEFEBVIN FRANCOISE 01:48:05 V2F 4 00:47:04 00:11:42 ELAN FRUGEOIS 8,327 07:12
239 323 BAILLY ISABELLE 01:48:33 V1F 15 00:47:32 00:15:27 LE DRAPEAU 8,291 07:14
240 318 LEBEGUE THERESE 01:48:35 V2F 5 00:47:34 00:12:12 LE DRAPEAU 8,289 07:14
241 149 CAPPE JEAN-PIERRE 01:48:44 V3M 9 00:47:43 00:26:43 CALOTTERIE 8,277 07:15
242 107 HERTAULT JACQUES 01:48:58 V3M 10 00:47:57 00:26:57 SPORT EVASION DES 2 CAPS 8,259 07:16
243 272 GOBERT GILLES 01:49:11 V2M 32 00:48:10 00:32:16 NON LICENCIE 8,243 07:17
244 115 WALLE SOPHIE 01:49:39 V1F 16 00:48:38 00:16:33 CLUB CAPPELLE LA GRANDE 8,208 07:19
245 103 LAVIALLE CEDRIC 01:50:10 V1M 70 00:49:09 00:46:55 NON LICENCIE 8,169 07:21
246 212 MAILLOT MELANIE 01:50:21 ESF 1 00:49:20 00:00:00 ATHLETISME CLUB OUTREAU 8,156 07:21
247 378 SAPELIER BENEDICTE 01:51:23 V1F 17 00:50:22 00:18:17 8,080 07:26
248 265 POURRE PASCAL 01:51:43 V2M 33 00:50:42 00:34:48 NON LICENCIE 8,056 07:27
249 104 DUCROCQ INES 01:52:36 SEF 17 00:51:35 00:34:34 NON LICENCIE 7,993 07:30
250 380 BILLIET HERVE 01:52:41 V1M 71 00:51:40 00:49:26 NON LICENCIE 7,987 07:31
251 379 MACON-CORNARD ISABELLE 01:52:42 V1F 18 00:51:41 00:19:36 NON LICENCIE 7,986 07:31
252 119 BETHOUART VALERIE 01:53:40 V1F 19 00:52:39 00:20:34 NON LICENCIE 7,918 07:35
253 142 GRESSIER DELPHINE 01:53:41 V1F 20 00:52:40 00:20:35 TEAM TRAIL 62 7,917 07:35
254 295 MARTEL CALERI VANESSA 01:55:03 V1F 21 00:54:02 00:21:57 7,823 07:40
255 230 TETARD HELENE 01:55:12 SEF 18 00:54:11 00:37:10 7,813 07:41
256 231 TETARD EMMANUEL 01:55:13 SEM 86 00:54:12 00:54:12 7,811 07:41
257 190 DEBOVE SANDRINE 01:55:19 V1F 22 00:54:18 00:22:13 ATHLETISME CLUB OUTREAU 7,805 07:41
258 216 ROGERE KATY 01:55:19 V1F 23 00:54:18 00:22:13 ATHLETISME CLUB OUTREAU 7,805 07:41
259 200 FERNAGUT SANDRINE 01:55:19 SEF 19 00:54:18 00:37:17 ATHLETISME CLUB OUTREAU 7,805 07:41
260 209 LERICHE PATRICIA 01:55:19 V2F 6 00:54:18 00:18:56 ATHLETISME CLUB OUTREAU 7,805 07:41
261 189 DEBOVE MICHEL 01:55:20 V2M 34 00:54:19 00:38:25 ATHLETISME CLUB OUTREAU 7,803 07:41
262 210 LIBERT MARIE-FRANCE 01:55:20 V3F 1 00:54:19 00:00:00 ATHLETISME CLUB OUTREAU 7,803 07:41
263 184 BOURSAULT HELENE 01:55:20 V1F 24 00:54:19 00:22:14 ATHLETISME CLUB OUTREAU 7,803 07:41
264 202 GIRAULT VALERIE 01:55:20 V1F 25 00:54:19 00:22:14 ATHLETISME CLUB OUTREAU 7,803 07:41
265 205 JUMETZ REGINE 01:55:21 V2F 7 00:54:20 00:18:58 ATHLETISME CLUB OUTREAU 7,802 07:41
266 508 ?Dossard #508 01:55:21 SEM 87 00:54:20 00:54:20 7,802 07:41
267 181 BERNARD MICHAEL 01:55:21 V1M 72 00:54:20 00:52:06 ATHLETISME CLUB OUTREAU 7,802 07:41
268 195 DEMBREMENT STEPHANE 01:55:21 V1M 73 00:54:20 00:52:06 ATHLETISME CLUB OUTREAU 7,802 07:41
269 575 BRIZZI ERIC 01:56:29 SEM 88 00:55:28 00:55:28 NON LICENCIE 7,726 07:46
270 254 DUSSART MURIEL 01:56:33 V2F 8 00:55:32 00:20:10 COLEMBERT 7,722 07:46
271 141 RUFIN STEPHANIE 01:56:34 SEF 20 00:55:33 00:38:32 TEAM TRAIL 62 7,721 07:46
272 122 BERNARD DAVID 01:56:51 V1M 74 00:55:50 00:53:36 CALOTTERIE 7,702 07:47
273 239 RUDNICKI VERONIQUE 01:56:59 V2F 9 00:55:58 00:20:36 AMAAC 7,693 07:48
274 301 GOUDAL NATHALIE 01:58:30 V2F 10 00:57:29 00:22:07 A.S. MARCK 7,595 07:54
275 309 MAGNIER REGIS 01:59:38 V1M 75 00:58:37 00:56:23 CULTURE DANSE ETAPLES 7,523 07:59
276 271 ROUSSEL ROBERT 02:00:32 V3M 11 00:59:31 00:38:31 NON LICENCIE 7,467 08:02
277 110 COQUERY STEPHANIE 02:00:41 V1F 26 00:59:40 00:27:35 NON LICENCIE 7,458 08:03
278 172 SERGENT ERIC 02:01:52 V2M 35 01:00:51 00:44:57 COLEMBERT 7,385 08:07
279 248 HOWELLS KRISTINA 02:02:19 V1F 27 01:01:18 00:29:13 A.S. MARCK 7,358 08:09
280 260 SERGENT LAURENT 02:02:19 V2M 36 01:01:18 00:45:24 COLEMBERT 7,358 08:09
281 219 SAGOT SYLVIE 02:02:34 V2F 11 01:01:33 00:26:11 ATHLETISME CLUB OUTREAU 7,343 08:10
282 193 DELIENCOURT AMELIE 02:02:34 SEF 21 01:01:33 00:44:32 ATHLETISME CLUB OUTREAU 7,343 08:10
283 204 GOURNAY AUDREY 02:02:34 SEF 22 01:01:33 00:44:32 ATHLETISME CLUB OUTREAU 7,343 08:10
284 192 DELACOUR CHRISTOPHE 02:02:35 V1M 76 01:01:34 00:59:20 ATHLETISME CLUB OUTREAU 7,342 08:10
285 276 RAMET CORALIE 02:02:50 V1F 28 01:01:49 00:29:44 CALOTTERIE 7,327 08:11
286 125 SZCZESNIAK RUDY 02:03:15 SEM 89 01:02:14 01:02:14 7,302 08:13
287 263 VASSEUR AMANDINE 02:04:13 SEF 23 01:03:12 00:46:11 NON LICENCIE 7,245 08:17
288 293 LEFRANC SOPHIE 02:04:26 SEF 24 01:03:25 00:46:24 PATRIOTES CROSS DE GUINES 7,233 08:18
289 294 TASSART HELENE 02:04:32 SEF 25 01:03:31 00:46:30 7,227 08:18
290 352 HAMY DANY 02:05:00 V1M 77 01:03:59 01:01:45 7,200 08:20
291 367 DUCLOY SYBILLE 02:05:06 V1F 29 01:04:05 00:32:00 NON LICENCIE 7,194 08:20
292 247 LABYT PATRICIA 02:05:33 V1F 30 01:04:32 00:32:27 Gravelines Triathlon 7,168 08:22
293 179 MAILLARD NADINE 02:05:33 V3F 2 01:04:32 00:10:13 PINK LADIES 7,168 08:22
294 177 MAGNIER BEATRICE 02:05:34 V2F 12 01:04:33 00:29:11 PINK LADIES 7,168 08:22
295 243 THOREL CAROLE 02:05:46 V1F 31 01:04:45 00:32:40 BERCK A C O 7,156 08:23
296 227 MACQUET CAROLINE 02:07:03 SEF 26 01:06:02 00:49:01 CULTURE DANSE ETAPLES 7,084 08:28
297 358 MASSON BETTY 02:07:09 SEF 27 01:06:08 00:49:07 NON LICENCIE 7,078 08:29
298 226 BAILLET ANGELIQUE 02:07:43 V1F 32 01:06:42 00:34:37 7,047 08:31
299 268 LYOEN ANAIS 02:08:34 SEF 28 01:07:33 00:50:32 NON LICENCIE 7,000 08:34
300 303 CHAUSSOY ANNE 02:08:51 V1F 33 01:07:50 00:35:45 SAINT MARTIN ATHLETISME 6,985 08:35
301 135 DUCROCQ THIERRY 02:10:22 V1M 78 01:09:21 01:07:07 6,904 08:41
302 134 DUCROCQ PASCALE 02:10:23 V1F 34 01:09:22 00:37:17 6,903 08:42
303 321 MODOLO FANNY 02:10:41 V1F 35 01:09:40 00:37:35 LE DRAPEAU 6,887 08:43
304 126 DUVAL MAITE 02:10:47 SEF 29 01:09:46 00:52:45 6,882 08:43
305 585 BELLOY GUILLAUME 02:10:55 SEM 90 01:09:54 01:09:54 NON LICENCIE 6,875 08:44
306 246 LEFEBVRE MARCEL 02:13:31 SEM 91 01:12:30 01:12:30 6,741 08:54
307 244 THOREL KIMBERLEY 02:14:06 ESF 2 01:13:05 00:23:45 BERCK A C O 6,711 08:56
308 178 LIGNIER MARIE FRANCE 02:14:17 V4F 1 01:13:16 00:00:00 PINK LADIES 6,702 08:57
309 580 GRESSIER HELENE 02:15:27 SEF 30 01:14:26 00:57:25 NON LICENCIE 6,645 09:02
310 371 SOUPE CHRISTELLE 02:18:48 V1F 36 01:17:47 00:45:42 ASUD JOGGING 6,484 09:15
311 372 COLIN RICHARD 02:18:48 V3M 12 01:17:47 00:56:47 ASUD JOGGING 6,484 09:15
312 237 JOLY EMILIE 02:27:11 SEF 31 01:26:10 01:09:09 NON LICENCIE 6,115 09:49
313 238 JOLY ALEXANDRA 02:27:13 SEF 32 01:26:12 01:09:11 NON LICENCIE 6,113 09:49
314 123 BERDIN CAROLE 02:29:59 SEF 33 01:28:58 01:11:57 COACH SPORT SANTE 6,001 10:00
Novembre 2017
Lun Mar Mer Jeu Ven Sam Dim
1
2
3
4
5
6
7
8
9
10
11
12
13
14
15
16
17
18
19
20
21
22
23
24
25
27
28
29
30